ESOW/VST METAR and TAF weather

Enter ICAO airport designator
Station Type Date Time Source
ESOW METAR 2020/04/07 16:50 UTC NOAA

ESOW 071650Z AUTO 31010KT 9999 NCD 12/M00 Q1026


Station Type Date Time Source
ESOW Decoded METAR 2020/04/07 16:50 UTC NOAA

Vasteras / Hasslo, Sweden (ESOW) 59-35N 016-38E 31M
Apr 07, 2020 - 12:50 PM EDT / 2020.04.07 1650 UTC
Wind: from the NW (310 degrees) at 12 MPH (10 KT):0
Visibility: greater than 7 mile(s):0
Temperature: 53 F (12 C)
Dew Point: 32 F (0 C)
Relative Humidity: 43%
Pressure (altimeter): 30.30 in. Hg (1026 hPa)
ob: ESOW 071650Z AUTO 31010KT 9999 NCD 12/M00 Q1026
cycle: 17

Station Type Date Time Source
ESOW TAF 2018/11/18 12:33 UTC NOAA

TAF ESOW 181130Z 1812/1914 02015KT 9999 BKN020
TEMPO 1812/1814 02015G25KT

Example: see airport list